createdAt,value
2024-02-29T00:08:54.809Z,72.47
2024-02-29T00:09:24.975Z,70.80
2024-02-29T00:10:24.972Z,70.54
2024-02-29T00:11:24.985Z,70.87
2024-02-29T00:12:25.001Z,71.08
2024-02-29T00:13:24.967Z,71.18
2024-02-29T00:14:24.983Z,71.52
2024-02-29T00:15:24.976Z,71.98
2024-02-29T00:16:24.978Z,72.05
2024-02-29T00:17:25.003Z,71.82
2024-02-29T00:18:24.995Z,71.68
2024-02-29T00:19:24.992Z,71.91
2024-02-29T00:20:24.980Z,72.08
2024-02-29T00:21:24.975Z,72.05
2024-02-29T00:22:25.038Z,71.98
2024-02-29T00:23:25.020Z,71.96
2024-02-29T00:24:25.002Z,72.12
2024-02-29T00:25:24.996Z,72.15
2024-02-29T00:29:03.687Z,74.90
2024-02-29T00:29:33.694Z,73.11
2024-02-29T00:30:33.727Z,72.36
2024-02-29T00:31:33.684Z,71.46
2024-02-29T00:32:33.705Z,71.06
2024-02-29T00:33:33.762Z,70.70
2024-02-29T00:34:33.710Z,70.31
2024-02-29T00:35:33.702Z,69.93
2024-02-29T00:36:33.702Z,69.71
2024-02-29T00:37:33.720Z,69.47
2024-02-29T00:39:06.237Z,69.37
2024-02-29T00:39:34.747Z,69.75
2024-02-29T00:40:33.704Z,69.49
2024-02-29T00:41:33.709Z,70.13
2024-02-29T00:42:33.735Z,70.68
2024-02-29T00:48:18.097Z,74.73
2024-02-29T00:48:51.121Z,72.25
2024-02-29T00:49:51.078Z,71.42
2024-02-29T00:50:51.091Z,71.02
2024-02-29T00:51:51.148Z,70.70
2024-02-29T00:52:51.101Z,70.32
2024-02-29T00:53:51.104Z,70.12
2024-02-29T00:54:51.158Z,70.02
2024-02-29T00:55:51.088Z,69.73
2024-02-29T00:56:51.101Z,69.61
2024-02-29T00:57:51.139Z,69.58
2024-02-29T00:58:51.114Z,69.50
2024-02-29T00:59:51.098Z,69.51
2024-02-29T01:00:51.189Z,69.30
2024-02-29T01:01:51.260Z,69.36
2024-02-29T01:02:51.146Z,69.31
2024-02-29T01:03:51.218Z,69.41
2024-02-29T01:04:51.121Z,69.32
2024-02-29T01:05:51.110Z,69.49
2024-02-29T01:07:18.150Z,69.70
2024-02-29T01:07:51.123Z,69.99
2024-02-29T01:08:51.163Z,69.48
2024-02-29T01:09:51.181Z,69.58
2024-02-29T01:11:18.212Z,69.52
2024-02-29T01:11:51.137Z,69.79
2024-02-29T01:12:51.156Z,69.44
2024-02-29T01:13:51.123Z,69.57
2024-02-29T01:14:51.166Z,69.89
2024-02-29T01:15:51.135Z,70.34
2024-02-29T01:16:51.132Z,70.75
2024-02-29T01:17:51.787Z,70.97
2024-02-29T01:23:38.546Z,73.81
2024-02-29T01:24:08.542Z,71.87
2024-02-29T01:25:08.550Z,71.37
2024-02-29T01:26:08.533Z,71.52
2024-02-29T01:27:08.563Z,71.40
2024-02-29T01:28:08.607Z,70.88
2024-02-29T01:29:08.523Z,70.60
2024-02-29T01:30:08.560Z,70.34
2024-02-29T01:31:08.553Z,70.09
2024-02-29T01:32:15.862Z,69.99
2024-02-29T01:34:58.051Z,70.62
2024-02-29T01:35:08.550Z,71.00
2024-02-29T01:36:09.191Z,69.71
2024-02-29T01:42:59.896Z,72.90
2024-02-29T01:43:30.537Z,70.81
2024-02-29T01:44:30.617Z,70.56
2024-02-29T01:48:06.319Z,73.15
2024-02-29T01:48:39.274Z,70.94
2024-02-29T01:50:03.757Z,70.49
2024-02-29T01:50:39.269Z,70.55
2024-02-29T01:51:39.288Z,69.90
2024-02-29T01:58:30.511Z,73.29
2024-02-29T01:59:01.155Z,70.95
2024-02-29T02:00:01.194Z,70.43
2024-02-29T02:01:01.307Z,70.26
2024-02-29T02:02:01.329Z,70.24
2024-02-29T02:03:01.274Z,70.23
2024-02-29T02:04:06.381Z,70.15
2024-02-29T02:05:01.322Z,70.09
2024-02-29T02:06:01.345Z,70.02
2024-02-29T02:07:01.374Z,70.01
2024-02-29T02:08:01.324Z,69.88
2024-02-29T02:09:32.709Z,69.74
2024-02-29T02:10:01.410Z,70.28
2024-02-29T02:11:01.406Z,70.02
2024-02-29T02:12:01.345Z,70.00
2024-02-29T02:13:01.411Z,69.94
2024-02-29T02:14:01.355Z,69.91
2024-02-29T02:15:01.346Z,69.78
2024-02-29T02:16:01.481Z,69.63
2024-02-29T02:17:01.358Z,69.62
2024-02-29T02:18:01.407Z,69.66
2024-02-29T02:19:01.395Z,69.53
2024-02-29T02:20:01.552Z,69.48
2024-02-29T02:21:01.366Z,69.45
2024-02-29T02:22:01.366Z,69.33
2024-02-29T02:23:01.348Z,69.37
2024-02-29T02:24:06.384Z,69.36
2024-02-29T02:25:01.405Z,69.38
2024-02-29T02:26:01.357Z,69.45
2024-02-29T02:27:01.376Z,69.42
2024-02-29T02:28:01.375Z,69.35
2024-02-29T02:29:06.376Z,69.38
2024-02-29T02:30:01.357Z,69.53
2024-02-29T02:36:50.183Z,76.33
2024-02-29T02:37:23.104Z,73.35
2024-02-29T02:38:23.115Z,72.88
2024-02-29T02:39:23.744Z,73.21
2024-02-29T02:40:23.113Z,73.35
2024-02-29T02:41:23.105Z,72.90
2024-02-29T02:42:23.121Z,72.59
2024-02-29T02:43:23.101Z,72.37
2024-02-29T02:44:28.894Z,72.15
2024-02-29T02:45:23.104Z,72.07
2024-02-29T02:46:23.114Z,71.83
2024-02-29T02:47:23.146Z,71.87
2024-02-29T02:48:23.120Z,71.78
2024-02-29T02:49:23.113Z,71.67
2024-02-29T02:50:23.200Z,71.39
2024-02-29T02:51:23.120Z,71.25
2024-02-29T02:52:23.163Z,71.05
2024-02-29T02:53:23.116Z,70.87
2024-02-29T02:59:07.534Z,73.45
2024-02-29T02:59:40.611Z,71.49
2024-02-29T03:00:40.657Z,71.04
2024-02-29T03:01:40.818Z,70.85
2024-02-29T03:02:40.588Z,70.61
2024-02-29T03:03:40.543Z,70.56
2024-02-29T03:05:07.857Z,70.59
2024-02-29T03:05:40.510Z,70.86
2024-02-29T03:07:07.691Z,70.50
2024-02-29T03:07:40.618Z,70.87
2024-02-29T03:08:40.515Z,70.66
2024-02-29T03:17:41.996Z,73.42
2024-02-29T03:18:10.978Z,71.72
2024-02-29T03:19:10.981Z,71.08
2024-02-29T03:20:10.957Z,70.91
2024-02-29T03:21:10.982Z,70.82
2024-02-29T03:22:11.055Z,70.93
2024-02-29T03:23:10.956Z,70.93
2024-02-29T03:24:10.972Z,70.82
2024-02-29T03:25:11.063Z,70.80
2024-02-29T03:26:10.988Z,70.81
2024-02-29T03:27:11.058Z,70.80
2024-02-29T03:28:10.969Z,70.71
2024-02-29T03:29:10.962Z,70.59
2024-02-29T03:30:10.962Z,70.61
2024-02-29T03:31:11.060Z,70.51
2024-02-29T03:32:10.991Z,70.47
2024-02-29T03:33:11.038Z,70.41
2024-02-29T03:34:10.982Z,70.39
2024-02-29T03:50:39.025Z,73.89
2024-02-29T03:51:11.878Z,72.70
2024-02-29T04:30:11.028Z,73.39
2024-02-29T04:30:44.093Z,72.25
2024-02-29T04:31:43.992Z,71.77
2024-02-29T04:32:44.010Z,71.55
2024-02-29T04:33:44.027Z,71.39
2024-02-29T04:49:12.632Z,74.61
2024-02-29T04:49:40.507Z,73.36
2024-02-29T04:50:40.517Z,72.86
2024-02-29T04:51:40.548Z,72.81
2024-02-29T04:52:40.592Z,72.86
2024-02-29T04:53:40.545Z,72.89
2024-02-29T04:54:40.546Z,72.91
2024-02-29T04:55:40.524Z,72.95
2024-02-29T04:56:40.513Z,72.95
2024-02-29T04:57:40.661Z,72.83
2024-02-29T04:58:40.671Z,72.72
2024-02-29T04:59:40.675Z,72.66
2024-02-29T05:00:40.793Z,72.69
2024-02-29T05:01:40.936Z,72.72
2024-02-29T05:02:40.763Z,72.72
2024-02-29T05:03:40.954Z,72.70
2024-02-29T05:04:40.972Z,72.88
2024-02-29T05:05:40.893Z,72.97
2024-02-29T05:06:40.927Z,72.99
2024-02-29T05:07:40.958Z,73.09
2024-02-29T05:08:41.014Z,73.01
2024-02-29T05:13:23.575Z,76.27
2024-02-29T05:13:54.247Z,73.87
2024-02-29T05:14:54.232Z,73.28
2024-02-29T05:15:54.317Z,73.22
2024-02-29T05:20:37.194Z,76.91
2024-02-29T05:21:07.385Z,74.53
2024-02-29T05:22:07.449Z,73.88
2024-02-29T05:23:07.373Z,73.55
2024-02-29T05:24:07.374Z,73.46
2024-02-29T05:25:07.415Z,73.59
2024-02-29T05:26:07.375Z,73.63
2024-02-29T05:27:07.381Z,73.60
2024-02-29T05:28:07.452Z,73.44
2024-02-29T05:29:07.434Z,73.32
2024-02-29T05:30:07.386Z,73.17
2024-02-29T05:31:07.399Z,72.94
2024-02-29T05:32:07.386Z,72.74
2024-02-29T05:33:07.477Z,72.64
2024-02-29T05:34:07.400Z,72.37
2024-02-29T05:35:07.399Z,72.21
2024-02-29T05:36:07.400Z,72.05
2024-02-29T05:37:07.414Z,72.29
2024-02-29T05:38:07.395Z,72.58
2024-02-29T05:54:38.603Z,74.98
2024-02-29T05:55:08.315Z,73.44
2024-02-29T05:56:08.260Z,72.81
2024-02-29T05:57:08.270Z,72.47
2024-02-29T05:58:08.314Z,72.20
2024-02-29T05:59:08.276Z,72.02
2024-02-29T06:00:08.265Z,71.96
2024-02-29T06:01:08.366Z,71.78
2024-02-29T06:02:08.338Z,71.92
2024-02-29T06:03:08.271Z,72.26
2024-02-29T06:04:08.336Z,72.49
2024-02-29T06:05:08.284Z,72.67
2024-02-29T06:06:08.284Z,72.69
2024-02-29T06:07:08.303Z,72.67
2024-02-29T06:08:08.341Z,72.70
2024-02-29T06:09:08.284Z,72.57
2024-02-29T06:10:08.412Z,72.50
2024-02-29T06:11:08.300Z,72.48
2024-02-29T06:12:08.276Z,72.46
2024-02-29T06:13:08.285Z,72.64
2024-02-29T06:14:08.283Z,72.77
2024-02-29T06:15:11.086Z,72.86
2024-02-29T06:16:08.350Z,73.05
2024-02-29T06:17:08.303Z,73.19
2024-02-29T06:18:08.405Z,73.26
2024-02-29T06:19:08.381Z,73.34
2024-02-29T06:20:08.296Z,73.65
2024-02-29T06:21:08.305Z,73.68
2024-02-29T06:22:08.370Z,73.59
2024-02-29T06:40:50.907Z,73.94
2024-02-29T06:41:17.865Z,72.88
2024-02-29T06:42:17.837Z,72.21
2024-02-29T06:43:17.966Z,71.93
2024-02-29T06:44:17.879Z,71.71
2024-02-29T06:45:18.030Z,71.62
2024-02-29T06:46:17.889Z,71.48
2024-02-29T06:47:17.900Z,71.51
2024-02-29T06:48:17.879Z,71.58
2024-02-29T06:49:17.966Z,71.63
2024-02-29T06:50:17.856Z,71.81
2024-02-29T06:51:17.861Z,71.62
2024-02-29T06:52:17.894Z,71.56
2024-02-29T06:53:18.065Z,71.76
2024-02-29T06:54:17.860Z,71.61
2024-02-29T06:55:17.958Z,71.54
2024-02-29T06:56:17.859Z,71.41
2024-02-29T06:57:17.858Z,71.27
2024-02-29T06:58:17.883Z,71.05
2024-02-29T06:59:17.864Z,71.00
2024-02-29T07:00:17.861Z,71.12
2024-02-29T07:01:17.913Z,71.30
2024-02-29T07:02:17.869Z,71.59
2024-02-29T07:03:17.885Z,71.71
2024-02-29T07:04:17.957Z,71.76
2024-02-29T07:05:17.898Z,71.81
2024-02-29T07:06:17.866Z,71.99
2024-02-29T07:07:17.995Z,72.48
2024-02-29T07:08:17.896Z,72.63
2024-02-29T07:09:17.889Z,72.75
2024-02-29T07:10:18.031Z,72.85
2024-02-29T07:11:17.903Z,73.13
2024-02-29T07:12:17.897Z,73.25
2024-02-29T07:13:17.985Z,73.24
2024-02-29T07:14:17.885Z,73.19
2024-02-29T07:15:17.935Z,73.17
2024-02-29T07:16:17.918Z,73.38
2024-02-29T07:17:17.894Z,73.56
2024-02-29T07:18:17.957Z,73.75
2024-02-29T07:19:18.012Z,74.19
2024-02-29T07:20:17.892Z,74.15
2024-02-29T07:21:17.903Z,74.29
2024-02-29T07:22:17.966Z,74.56
2024-02-29T07:23:17.904Z,74.73
2024-02-29T07:24:17.895Z,74.95
2024-02-29T07:25:17.975Z,74.91
2024-02-29T07:26:17.898Z,74.98
2024-02-29T07:36:15.209Z,76.87
2024-02-29T07:36:52.712Z,75.62
2024-02-29T07:50:15.528Z,76.23
2024-02-29T07:50:52.506Z,74.92
2024-02-29T07:54:21.951Z,77.06
2024-02-29T07:54:59.136Z,74.43
2024-02-29T07:55:59.144Z,73.83
2024-02-29T07:56:59.118Z,73.72
2024-02-29T07:57:59.182Z,73.45
2024-02-29T08:01:34.929Z,76.44
2024-02-29T08:02:07.969Z,73.76
2024-02-29T08:03:07.850Z,72.97
2024-02-29T08:04:07.862Z,72.98
2024-02-29T08:05:07.895Z,72.82
2024-02-29T08:06:07.846Z,72.75
2024-02-29T08:07:07.838Z,72.97
2024-02-29T08:08:07.839Z,73.36
2024-02-29T08:09:10.378Z,73.34
2024-02-29T08:10:08.075Z,73.37
2024-02-29T08:11:07.835Z,73.13
2024-02-29T08:12:07.876Z,73.30
2024-02-29T08:13:07.911Z,73.31
2024-02-29T08:14:07.846Z,73.06
2024-02-29T08:15:07.853Z,72.87
2024-02-29T08:16:07.939Z,72.80
2024-02-29T08:17:07.870Z,72.78
2024-02-29T08:18:34.563Z,72.61
2024-02-29T08:22:47.910Z,73.76
2024-02-29T08:23:20.903Z,71.97
2024-02-29T08:24:20.895Z,71.37
2024-02-29T08:25:21.076Z,70.98
2024-02-29T08:26:20.884Z,70.77
2024-02-29T08:27:20.920Z,70.81
2024-02-29T08:28:20.957Z,70.86
2024-02-29T08:29:20.897Z,70.86
2024-02-29T08:34:00.383Z,73.93
2024-02-29T08:34:36.171Z,71.57
2024-02-29T08:36:01.241Z,70.93
2024-02-29T08:36:36.190Z,71.00
2024-02-29T08:40:19.899Z,72.06
2024-02-29T08:42:27.957Z,71.69
2024-02-29T08:43:22.895Z,69.89
2024-02-29T08:44:00.140Z,69.69
2024-02-29T08:45:00.185Z,69.28
2024-02-29T08:46:00.212Z,69.05
2024-02-29T08:54:54.422Z,69.10
2024-02-29T08:55:30.651Z,67.94
2024-02-29T08:56:30.584Z,67.72
2024-02-29T08:57:30.662Z,67.49
2024-02-29T08:58:30.624Z,67.09
2024-02-29T08:59:30.586Z,67.01
2024-02-29T09:00:30.585Z,66.81
2024-02-29T09:01:30.656Z,66.80
2024-02-29T09:02:30.597Z,66.97
2024-02-29T09:03:30.642Z,67.27
2024-02-29T09:04:30.598Z,67.65
2024-02-29T09:05:30.581Z,68.09
2024-02-29T09:06:36.236Z,68.07
2024-02-29T09:07:31.668Z,67.88
2024-02-29T09:08:30.586Z,67.55
2024-02-29T09:20:41.889Z,70.73
2024-02-29T09:21:14.754Z,68.70
2024-02-29T09:22:14.847Z,68.62
2024-02-29T09:23:14.752Z,68.55
2024-02-29T09:24:16.093Z,68.07
2024-02-29T09:25:14.848Z,67.80
2024-02-29T09:26:14.873Z,67.77
2024-02-29T09:27:14.750Z,67.31
2024-02-29T09:28:14.905Z,66.75
2024-02-29T09:29:14.800Z,66.46
2024-02-29T09:30:14.766Z,66.05
2024-02-29T09:31:14.874Z,65.68
2024-02-29T09:32:14.760Z,65.30
2024-02-29T09:33:14.803Z,64.82
2024-02-29T09:34:14.788Z,64.47
2024-02-29T09:35:14.778Z,64.17
2024-02-29T09:36:14.823Z,64.21
2024-02-29T09:37:14.819Z,64.07
2024-02-29T09:38:14.780Z,63.84
2024-02-29T09:39:14.786Z,63.58
2024-02-29T09:40:14.824Z,63.37
2024-02-29T09:42:15.561Z,62.77
2024-02-29T09:43:14.852Z,62.84
2024-02-29T09:44:14.773Z,62.72
2024-02-29T09:45:24.351Z,63.67
2024-02-29T09:46:22.754Z,63.98
2024-02-29T09:47:22.708Z,63.80
2024-02-29T09:48:22.753Z,63.51
2024-02-29T09:49:22.816Z,63.17
2024-02-29T09:50:22.850Z,62.15
2024-02-29T09:51:22.922Z,61.56
2024-02-29T09:52:22.978Z,61.99
2024-02-29T09:53:22.990Z,61.73
2024-02-29T09:54:23.073Z,61.76
2024-02-29T09:55:23.130Z,61.86
2024-02-29T09:56:23.146Z,61.62
2024-02-29T09:57:23.178Z,61.77
2024-02-29T09:58:23.249Z,61.90
2024-02-29T09:59:23.190Z,61.86
2024-02-29T10:00:23.232Z,62.06
2024-02-29T10:01:23.632Z,61.53
2024-02-29T10:02:23.301Z,61.18
2024-02-29T10:03:23.359Z,61.50
2024-02-29T10:04:23.467Z,61.09
2024-02-29T10:05:23.469Z,61.78
2024-02-29T10:06:23.468Z,61.89
2024-02-29T10:07:23.779Z,61.78
2024-02-29T10:08:23.511Z,61.79
2024-02-29T10:09:23.550Z,61.48
2024-02-29T10:10:23.856Z,61.43
2024-02-29T10:11:23.675Z,61.70
2024-02-29T10:12:23.657Z,61.07
2024-02-29T10:13:23.788Z,61.39
2024-02-29T10:14:23.796Z,61.25
2024-02-29T10:15:23.817Z,61.54
2024-02-29T10:16:24.989Z,62.16
2024-02-29T10:17:23.885Z,61.93
2024-02-29T10:18:23.875Z,62.12
2024-02-29T10:19:24.042Z,62.63
2024-02-29T10:20:23.904Z,63.03
2024-02-29T10:21:23.872Z,63.47
2024-02-29T10:23:23.879Z,63.37
2024-02-29T10:24:24.329Z,63.37
2024-02-29T10:25:23.915Z,62.73
2024-02-29T10:26:23.877Z,63.07
2024-02-29T10:27:23.881Z,63.52
2024-02-29T10:28:23.916Z,63.61
2024-02-29T10:29:25.085Z,63.41
2024-02-29T10:30:23.893Z,63.56
2024-02-29T10:31:23.980Z,64.52
2024-02-29T10:32:23.915Z,64.38
2024-02-29T10:33:23.917Z,64.51
2024-02-29T10:34:24.059Z,64.52
2024-02-29T10:35:23.929Z,64.24
2024-02-29T10:36:23.924Z,63.84
2024-02-29T10:37:23.928Z,63.51
2024-02-29T10:38:24.282Z,63.53
2024-02-29T10:39:23.901Z,63.40
2024-02-29T10:40:23.998Z,63.14
2024-02-29T10:41:23.910Z,62.89
2024-02-29T10:42:23.986Z,62.57
2024-02-29T10:43:23.970Z,62.21
2024-02-29T10:44:23.908Z,62.04
2024-02-29T10:45:26.706Z,61.84
2024-02-29T10:46:23.951Z,61.89
2024-02-29T10:47:23.949Z,62.30
2024-02-29T10:48:23.916Z,62.37
2024-02-29T10:49:23.943Z,62.35
2024-02-29T10:50:23.928Z,61.84
2024-02-29T10:51:27.168Z,61.93
2024-02-29T10:52:24.012Z,61.81
2024-02-29T10:53:23.917Z,61.63
2024-02-29T10:54:23.956Z,61.58
2024-02-29T10:55:24.060Z,62.11
2024-02-29T10:56:23.939Z,62.44
2024-02-29T10:57:23.912Z,62.43
2024-02-29T10:58:23.982Z,62.94
2024-02-29T10:59:23.942Z,62.97
2024-02-29T11:00:23.928Z,63.04
2024-02-29T11:01:24.128Z,63.12
2024-02-29T11:02:23.920Z,62.69
2024-02-29T11:03:23.941Z,62.68
2024-02-29T11:04:24.093Z,62.31
2024-02-29T11:05:23.964Z,61.90
2024-02-29T11:06:23.920Z,61.61
2024-02-29T11:07:24.009Z,61.27
2024-02-29T11:08:23.963Z,60.54
2024-02-29T11:09:27.304Z,60.07
2024-02-29T11:10:24.020Z,59.54
2024-02-29T11:11:24.004Z,59.58
2024-02-29T11:12:23.927Z,59.81
2024-02-29T11:13:23.973Z,60.23
2024-02-29T11:18:02.165Z,62.06
2024-02-29T11:19:03.577Z,59.77
2024-02-29T11:19:43.230Z,59.76
2024-02-29T11:20:38.252Z,60.06
2024-02-29T11:27:48.633Z,62.59
2024-02-29T11:28:21.600Z,60.62
2024-02-29T11:29:21.464Z,60.10
2024-02-29T11:30:21.437Z,59.77
2024-02-29T11:31:21.552Z,59.48
2024-02-29T11:32:21.467Z,59.41
2024-02-29T11:33:21.552Z,58.75
2024-02-29T11:34:21.512Z,59.45
2024-02-29T11:35:21.491Z,59.28
2024-02-29T11:36:21.533Z,59.25
2024-02-29T11:37:23.347Z,59.45
2024-02-29T11:38:28.761Z,59.06
2024-02-29T11:39:22.464Z,58.97
2024-02-29T11:40:21.717Z,59.19
2024-02-29T11:41:21.586Z,59.35
2024-02-29T11:42:21.484Z,60.25
2024-02-29T11:43:23.577Z,59.60
2024-02-29T11:44:21.497Z,59.72
2024-02-29T11:45:21.518Z,59.84
2024-02-29T11:46:21.587Z,59.33
2024-02-29T11:47:21.485Z,59.94
2024-02-29T11:48:21.472Z,60.33
2024-02-29T11:49:21.523Z,60.38
2024-02-29T11:57:29.376Z,61.37
2024-02-29T12:04:55.744Z,59.91
2024-02-29T12:11:36.212Z,59.34
2024-02-29T12:12:12.117Z,58.38
2024-02-29T12:13:13.163Z,57.70
2024-02-29T12:14:12.284Z,57.62
2024-02-29T12:15:12.215Z,57.29
2024-02-29T12:25:24.360Z,59.28
2024-02-29T12:30:57.795Z,58.19
2024-02-29T12:31:33.416Z,56.88
2024-02-29T12:36:09.048Z,58.90
2024-02-29T12:36:46.473Z,57.23
2024-02-29T12:37:46.505Z,56.56
2024-02-29T12:38:46.469Z,56.66
2024-02-29T12:39:47.274Z,56.42
2024-02-29T12:40:46.591Z,56.36
2024-02-29T12:41:46.501Z,56.21
2024-02-29T12:42:46.512Z,56.13
2024-02-29T12:43:46.472Z,56.08
2024-02-29T12:44:46.511Z,56.31
2024-02-29T12:45:46.521Z,56.39
2024-02-29T12:46:46.512Z,56.00
2024-02-29T12:47:46.616Z,55.89
2024-02-29T12:48:46.521Z,55.39
2024-02-29T12:49:46.573Z,55.05
2024-02-29T12:50:46.480Z,55.20
2024-02-29T12:51:46.537Z,55.63
2024-02-29T12:52:46.488Z,55.87
2024-02-29T12:53:46.502Z,55.99
2024-02-29T12:54:46.532Z,56.13
2024-02-29T12:55:46.505Z,56.16
2024-02-29T12:56:46.577Z,56.26
2024-02-29T12:57:46.574Z,56.10
2024-02-29T12:58:46.492Z,56.03
2024-02-29T12:59:46.496Z,55.76
2024-02-29T13:00:46.563Z,55.60
2024-02-29T13:01:46.606Z,55.42
2024-02-29T13:02:46.568Z,55.32
2024-02-29T13:03:46.661Z,55.18
2024-02-29T13:04:46.732Z,55.45
2024-02-29T13:05:46.721Z,54.74
2024-02-29T13:06:46.798Z,54.82
2024-02-29T13:07:46.847Z,54.58
2024-02-29T13:08:47.512Z,54.47
2024-02-29T13:09:46.906Z,54.31
2024-02-29T13:10:46.921Z,54.22
2024-02-29T13:11:47.031Z,54.06
2024-02-29T13:12:51.899Z,54.20
2024-02-29T13:13:48.053Z,54.23
2024-02-29T13:14:47.036Z,54.04
2024-02-29T13:15:47.107Z,53.77
2024-02-29T13:16:47.020Z,53.70
2024-02-29T13:17:47.054Z,53.78
2024-02-29T13:18:47.033Z,53.47
2024-02-29T13:19:47.028Z,53.20
2024-02-29T13:20:47.021Z,53.22
2024-02-29T13:21:47.048Z,52.84
2024-02-29T13:22:47.026Z,53.18
2024-02-29T13:23:47.022Z,53.57
2024-02-29T13:24:47.152Z,53.22
2024-02-29T13:25:47.174Z,52.69
2024-02-29T13:26:47.123Z,52.68
2024-02-29T13:27:47.176Z,52.97
2024-02-29T13:28:47.291Z,52.93
2024-02-29T13:29:47.261Z,52.88
2024-02-29T13:30:47.333Z,52.46
2024-02-29T13:31:47.385Z,52.21
2024-02-29T13:32:47.397Z,52.23
2024-02-29T13:33:47.450Z,52.12
2024-02-29T13:34:47.480Z,52.01
2024-02-29T13:35:47.541Z,51.95
2024-02-29T13:36:47.611Z,51.82
2024-02-29T13:37:47.667Z,51.65
2024-02-29T13:38:47.691Z,51.40
2024-02-29T13:39:47.780Z,51.67
2024-02-29T13:40:47.755Z,51.76
2024-02-29T13:41:47.792Z,51.70
2024-02-29T13:42:47.858Z,51.86
2024-02-29T13:43:47.855Z,51.81
2024-02-29T13:44:48.014Z,51.18
2024-02-29T13:45:48.032Z,50.47
2024-02-29T13:46:48.041Z,50.68
2024-02-29T13:47:48.043Z,51.11
2024-02-29T13:48:48.101Z,51.42
2024-02-29T13:49:48.108Z,51.37
2024-02-29T13:50:48.119Z,51.07
2024-02-29T13:51:48.214Z,51.00
2024-02-29T13:52:48.198Z,50.35
2024-02-29T13:53:48.288Z,50.46
2024-02-29T13:54:48.456Z,50.80
2024-02-29T13:55:48.715Z,51.10
2024-02-29T13:56:48.476Z,50.65
2024-02-29T13:57:48.460Z,50.90
2024-02-29T13:58:48.468Z,50.37
2024-02-29T13:59:48.469Z,50.49
2024-02-29T14:00:48.685Z,50.56
2024-02-29T14:01:48.728Z,50.73
2024-02-29T14:02:48.604Z,50.38
2024-02-29T14:03:48.700Z,49.86
2024-02-29T14:04:48.768Z,50.34
2024-02-29T14:05:53.810Z,50.04
2024-02-29T14:06:48.998Z,49.96
2024-02-29T14:07:49.418Z,49.92
2024-02-29T14:08:48.823Z,50.13
2024-02-29T14:09:48.970Z,49.90
2024-02-29T14:10:48.907Z,50.17
2024-02-29T14:11:48.936Z,50.58
2024-02-29T14:12:49.188Z,50.48
2024-02-29T14:13:49.048Z,50.16
2024-02-29T14:14:49.117Z,50.45
2024-02-29T14:15:49.212Z,50.59
2024-02-29T14:16:49.346Z,50.23
2024-02-29T14:17:56.619Z,50.56
2024-02-29T14:18:58.215Z,50.80
2024-02-29T14:19:56.573Z,50.94
2024-02-29T14:20:56.581Z,51.29
2024-02-29T14:21:56.584Z,51.25
2024-02-29T14:22:56.589Z,51.40
2024-02-29T14:23:56.581Z,51.16
2024-02-29T14:24:56.615Z,51.18
2024-02-29T14:25:56.584Z,51.26
2024-02-29T14:26:56.598Z,51.09
2024-02-29T14:27:56.600Z,50.66
2024-02-29T14:28:56.599Z,51.79
2024-02-29T14:29:56.588Z,52.07
2024-02-29T14:30:56.633Z,52.06
2024-02-29T14:31:56.637Z,52.43
2024-02-29T14:32:56.620Z,52.45
2024-02-29T14:33:56.613Z,52.18
2024-02-29T14:34:56.797Z,52.90
2024-02-29T14:35:56.691Z,52.89
2024-02-29T14:36:56.747Z,52.35
2024-02-29T14:37:56.681Z,52.11
2024-02-29T14:38:56.633Z,51.89
2024-02-29T14:39:56.735Z,51.64
2024-02-29T14:40:56.667Z,51.44
2024-02-29T14:41:56.724Z,50.23
2024-02-29T14:42:56.803Z,50.81
2024-02-29T14:43:56.856Z,50.18
2024-02-29T14:44:56.872Z,50.48
2024-02-29T14:45:56.926Z,52.26
2024-02-29T14:46:56.952Z,51.73
2024-02-29T14:47:57.098Z,52.78
2024-02-29T14:48:57.042Z,52.35
2024-02-29T14:49:57.072Z,51.40
2024-02-29T14:50:57.225Z,51.61
2024-02-29T14:51:57.235Z,51.58
2024-02-29T14:52:57.203Z,52.04
2024-02-29T14:53:57.271Z,53.65
2024-02-29T14:54:57.389Z,54.09
2024-02-29T14:55:57.381Z,53.78
2024-02-29T14:56:57.400Z,55.31
2024-02-29T14:57:57.446Z,56.16
2024-02-29T14:58:57.473Z,56.39
2024-02-29T14:59:57.496Z,57.53
2024-02-29T15:00:57.673Z,58.13
2024-02-29T15:01:58.764Z,57.77
2024-02-29T15:02:57.589Z,56.28
2024-02-29T15:03:57.732Z,54.89
2024-02-29T15:04:57.666Z,55.25
2024-02-29T15:05:57.654Z,54.23
2024-02-29T15:06:58.705Z,54.01
2024-02-29T15:07:57.725Z,53.55
2024-02-29T15:08:57.741Z,53.84
2024-02-29T15:09:57.812Z,54.27
2024-02-29T15:10:57.835Z,54.12
2024-02-29T15:11:57.858Z,54.50
2024-02-29T15:12:58.101Z,55.02
2024-02-29T15:13:57.976Z,54.95
2024-02-29T15:14:57.978Z,55.33
2024-02-29T15:15:58.042Z,55.51
2024-02-29T15:16:58.050Z,55.39
2024-02-29T15:17:58.130Z,54.83
2024-02-29T15:18:58.245Z,54.81
2024-02-29T15:19:58.192Z,54.45
2024-02-29T15:20:58.263Z,54.57
2024-02-29T15:21:58.341Z,53.98
2024-02-29T15:22:58.332Z,54.10
2024-02-29T15:23:58.464Z,54.20
2024-02-29T15:24:58.587Z,54.07
2024-02-29T15:25:58.585Z,53.00
2024-02-29T15:26:58.525Z,52.48
2024-02-29T15:27:58.585Z,52.35
2024-02-29T15:28:58.657Z,51.87
2024-02-29T15:29:58.665Z,51.85
2024-02-29T15:30:58.727Z,51.39
2024-02-29T15:31:58.757Z,50.98
2024-02-29T15:32:58.824Z,51.50
2024-02-29T15:33:58.923Z,51.86
2024-02-29T15:34:58.855Z,52.09
2024-02-29T15:35:58.927Z,51.79
2024-02-29T15:36:58.954Z,51.79
2024-02-29T15:37:58.960Z,52.46
2024-02-29T15:38:58.987Z,52.71
2024-02-29T15:39:59.089Z,52.87
2024-02-29T15:40:59.082Z,52.68
2024-02-29T15:41:59.106Z,52.70
2024-02-29T15:42:59.155Z,52.79
2024-02-29T15:43:59.173Z,53.17
2024-02-29T15:44:59.235Z,53.23
2024-02-29T15:45:59.451Z,53.23
2024-02-29T15:46:59.327Z,53.45
2024-02-29T15:47:59.420Z,53.57
2024-02-29T15:48:59.425Z,53.52
2024-02-29T15:49:59.441Z,53.64
2024-02-29T15:50:59.485Z,53.61
2024-02-29T15:51:59.648Z,53.48
2024-02-29T15:52:59.555Z,53.54
2024-02-29T15:53:59.572Z,53.58
2024-02-29T15:54:59.652Z,53.70
2024-02-29T15:56:02.512Z,53.67
2024-02-29T15:56:59.647Z,53.77
2024-02-29T15:57:59.808Z,53.76
2024-02-29T15:58:59.644Z,53.57
2024-02-29T15:59:59.653Z,53.70
2024-02-29T16:00:59.674Z,53.60
2024-02-29T16:01:59.673Z,53.73
2024-02-29T16:02:59.651Z,53.84
2024-02-29T16:03:59.687Z,53.72
2024-02-29T16:04:59.704Z,53.93
2024-02-29T16:05:59.671Z,53.90
2024-02-29T16:06:59.832Z,53.67
2024-02-29T16:07:59.746Z,53.67
2024-02-29T16:08:59.655Z,53.72
2024-02-29T16:09:59.795Z,54.00
2024-02-29T16:10:59.648Z,54.11
2024-02-29T16:11:59.729Z,54.23
2024-02-29T16:12:59.703Z,54.31
2024-02-29T16:13:59.663Z,54.32
2024-02-29T16:14:59.655Z,54.31
2024-02-29T16:15:59.693Z,54.57
2024-02-29T16:16:59.784Z,54.72
2024-02-29T16:17:59.700Z,54.79
2024-02-29T16:18:59.698Z,54.79
2024-02-29T16:19:59.666Z,55.18
2024-02-29T16:20:59.787Z,55.17
2024-02-29T16:21:59.705Z,55.15
2024-02-29T16:22:59.742Z,55.32
2024-02-29T16:23:59.764Z,55.55
2024-02-29T16:24:59.738Z,55.65
2024-02-29T16:25:59.697Z,55.39
2024-02-29T16:26:59.687Z,55.55
2024-02-29T16:27:59.713Z,56.44
2024-02-29T16:28:59.668Z,56.57
2024-02-29T16:29:59.669Z,56.54
2024-02-29T16:31:00.755Z,56.36
2024-02-29T16:31:59.660Z,56.21
2024-02-29T16:32:59.725Z,56.51
2024-02-29T16:33:59.735Z,56.37
2024-02-29T16:34:59.737Z,56.29
2024-02-29T16:35:59.797Z,55.87
2024-02-29T16:36:59.862Z,56.52
2024-02-29T16:37:59.942Z,56.77
2024-02-29T16:38:59.928Z,57.07
2024-02-29T16:40:00.143Z,56.95
2024-02-29T16:41:00.008Z,56.81
2024-02-29T16:42:00.016Z,56.68
2024-02-29T16:43:00.034Z,56.52
2024-02-29T16:44:00.102Z,56.02
2024-02-29T16:45:00.107Z,56.12
2024-02-29T16:46:00.228Z,56.18
2024-02-29T16:47:00.135Z,56.15
2024-02-29T16:48:00.235Z,56.17
2024-02-29T16:49:00.232Z,56.29
2024-02-29T16:50:00.224Z,56.63
2024-02-29T16:51:00.293Z,57.11
2024-02-29T16:52:00.355Z,57.30
2024-02-29T16:53:00.380Z,57.74
2024-02-29T16:54:00.421Z,57.56
2024-02-29T16:55:00.492Z,57.41
2024-02-29T16:56:00.630Z,57.48
2024-02-29T16:57:00.530Z,57.36
2024-02-29T16:58:00.661Z,57.19
2024-02-29T16:59:00.611Z,57.32
2024-02-29T17:00:00.700Z,57.39
2024-02-29T17:01:00.859Z,57.41
2024-02-29T17:02:00.984Z,57.44
2024-02-29T17:03:00.758Z,57.83
2024-02-29T17:04:00.857Z,57.69
2024-02-29T17:05:00.832Z,57.70
2024-02-29T17:06:00.941Z,57.76
2024-02-29T17:07:01.009Z,57.64